createdAt,value
2024-02-13T00:00:29.754Z,7.50
2024-02-13T00:03:17.906Z,7.03
2024-02-13T00:06:07.063Z,6.87
2024-02-13T00:08:54.818Z,6.70
2024-02-13T00:11:44.256Z,6.03
2024-02-13T00:14:33.813Z,6.33
2024-02-13T00:17:23.111Z,8.00
2024-02-13T00:20:15.527Z,6.90
2024-02-13T00:23:06.896Z,5.60
2024-02-13T00:25:55.921Z,5.90
2024-02-13T00:28:45.485Z,5.77
2024-02-13T00:31:36.528Z,4.80
2024-02-13T00:34:24.183Z,5.87
2024-02-13T00:37:13.003Z,5.20
2024-02-13T00:40:00.840Z,5.87
2024-02-13T00:42:52.654Z,6.07
2024-02-13T00:45:40.598Z,5.50
2024-02-13T00:48:31.736Z,5.87
2024-02-13T00:51:19.478Z,5.73
2024-02-13T00:54:07.859Z,5.87
2024-02-13T00:56:55.836Z,6.63
2024-02-13T00:59:44.528Z,6.33
2024-02-13T01:02:32.537Z,7.00
2024-02-13T01:05:22.225Z,6.77
2024-02-13T01:08:12.176Z,6.27
2024-02-13T01:11:00.095Z,7.07
2024-02-13T01:13:48.203Z,5.80
2024-02-13T01:16:36.361Z,5.93
2024-02-13T01:19:24.279Z,5.83
2024-02-13T01:22:13.882Z,6.27
2024-02-13T01:25:01.805Z,6.60
2024-02-13T01:27:49.524Z,6.03
2024-02-13T01:30:39.657Z,6.67
2024-02-13T01:33:27.961Z,5.87
2024-02-13T01:36:19.539Z,5.80
2024-02-13T01:39:10.987Z,5.60
2024-02-13T01:41:59.898Z,6.23
2024-02-13T01:44:48.616Z,5.93
2024-02-13T01:47:37.215Z,6.30
2024-02-13T01:50:25.615Z,7.93
2024-02-13T01:53:14.766Z,7.90
2024-02-13T01:56:07.692Z,6.10
2024-02-13T01:58:55.390Z,7.70
2024-02-13T02:01:44.165Z,7.57
2024-02-13T02:04:34.198Z,8.23
2024-02-13T02:07:25.159Z,6.90
2024-02-13T02:10:17.549Z,7.33
2024-02-13T02:13:08.991Z,7.77
2024-02-13T02:15:57.231Z,6.40
2024-02-13T02:18:45.349Z,5.93
2024-02-13T02:21:33.051Z,6.57
2024-02-13T02:24:20.589Z,5.87
2024-02-13T02:27:12.548Z,6.03
2024-02-13T02:30:09.939Z,6.67
2024-02-13T02:33:04.125Z,6.13
2024-02-13T02:35:59.410Z,8.60
2024-02-13T02:38:47.314Z,6.30
2024-02-13T02:41:35.169Z,5.47
2024-02-13T02:44:24.788Z,7.53
2024-02-13T02:47:13.673Z,5.17
2024-02-13T02:50:04.974Z,5.23
2024-02-13T02:52:54.050Z,5.93
2024-02-13T02:55:42.564Z,6.17
2024-02-13T02:58:30.244Z,6.03
2024-02-13T03:01:19.973Z,5.97
2024-02-13T03:04:11.385Z,5.33
2024-02-13T03:07:01.363Z,5.00
2024-02-13T03:09:51.854Z,6.23
2024-02-13T03:12:39.744Z,5.70
2024-02-13T03:15:28.869Z,5.00
2024-02-13T03:18:19.626Z,5.63
2024-02-13T03:21:08.557Z,4.93
2024-02-13T03:23:56.476Z,5.50
2024-02-13T03:26:44.568Z,5.50
2024-02-13T03:29:32.951Z,5.60
2024-02-13T03:32:21.622Z,5.50
2024-02-13T03:35:11.818Z,6.10
2024-02-13T03:37:59.566Z,5.30
2024-02-13T03:40:47.341Z,6.43
2024-02-13T03:43:35.636Z,6.33
2024-02-13T03:50:41.573Z,6.30
2024-02-13T03:57:48.472Z,5.40
2024-02-13T04:04:49.195Z,5.77
2024-02-13T04:15:42.906Z,5.43
2024-02-13T04:22:34.744Z,5.00
2024-02-13T04:26:25.807Z,6.17
2024-02-13T04:33:28.138Z,5.43
2024-02-13T04:40:20.316Z,4.47
2024-02-13T04:47:10.809Z,3.80
2024-02-13T04:50:54.984Z,4.57
2024-02-13T04:53:45.900Z,4.27
2024-02-13T05:00:38.647Z,5.37
2024-02-13T05:07:31.197Z,4.53
2024-02-13T05:10:24.107Z,5.07
2024-02-13T05:17:15.156Z,4.80
2024-02-13T05:20:59.103Z,5.50
2024-02-13T05:23:49.268Z,4.43
2024-02-13T05:27:32.929Z,5.47
2024-02-13T05:30:23.894Z,5.77
2024-02-13T05:34:07.847Z,6.27
2024-02-13T05:37:04.212Z,5.80
2024-02-13T05:40:47.822Z,9.63
2024-02-13T05:43:37.152Z,7.53
2024-02-13T05:50:27.959Z,6.67
2024-02-13T05:57:20.274Z,4.60
2024-02-13T06:01:04.228Z,4.90
2024-02-13T06:07:56.355Z,3.47
2024-02-13T06:14:48.772Z,3.00
2024-02-13T06:21:39.709Z,2.70
2024-02-13T06:25:23.518Z,2.20
2024-02-13T06:28:15.681Z,2.03
2024-02-13T06:35:07.538Z,1.90
2024-02-13T06:41:58.441Z,2.10
2024-02-13T06:48:50.616Z,2.50
2024-02-13T06:55:41.789Z,2.83
2024-02-13T07:02:32.123Z,2.90
2024-02-13T07:09:25.092Z,2.53
2024-02-13T07:16:16.137Z,3.10
2024-02-13T07:23:06.935Z,3.47
2024-02-13T07:30:01.316Z,2.03
2024-02-13T07:36:51.934Z,1.73
2024-02-13T07:43:42.688Z,1.30
2024-02-13T07:50:31.747Z,1.50
2024-02-13T07:54:14.275Z,1.60
2024-02-13T07:57:04.126Z,1.90
2024-02-13T08:03:54.667Z,2.37
2024-02-13T08:10:48.043Z,0.63
2024-02-13T08:17:39.186Z,2.67
2024-02-13T08:24:30.524Z,0.90
2024-02-13T08:28:14.575Z,0.60
2024-02-13T08:31:05.573Z,0.77
2024-02-13T08:34:47.919Z,0.73
2024-02-13T08:41:38.140Z,2.20
2024-02-13T08:48:31.161Z,1.13
2024-02-13T08:55:21.827Z,0.73
2024-02-13T08:59:05.695Z,0.90
2024-02-13T09:01:56.020Z,0.73
2024-02-13T09:08:50.740Z,2.90
2024-02-13T09:12:34.717Z,0.60
2024-02-13T09:15:24.967Z,1.33
2024-02-13T09:18:45.488Z,1.00
2024-02-13T09:22:29.486Z,3.10
2024-02-13T09:29:20.727Z,1.00
2024-02-13T09:36:10.633Z,1.27
2024-02-13T09:39:54.604Z,1.60
2024-02-13T09:42:44.899Z,1.30
2024-02-13T09:49:43.328Z,2.23
2024-02-13T09:56:36.956Z,1.17
2024-02-13T10:03:29.294Z,1.97
2024-02-13T10:07:13.543Z,1.20
2024-02-13T10:23:20.340Z,0.93
2024-02-13T10:25:49.840Z,0.90
2024-02-13T10:28:21.283Z,1.00
2024-02-13T10:30:53.345Z,0.90
2024-02-13T10:33:23.250Z,1.37
2024-02-13T10:35:56.890Z,2.43
2024-02-13T10:38:30.797Z,1.20
2024-02-13T10:41:01.853Z,1.30
2024-02-13T10:43:31.920Z,1.40
2024-02-13T10:46:06.450Z,1.20
2024-02-13T10:48:44.195Z,1.30
2024-02-13T10:51:18.767Z,1.20
2024-02-13T10:53:50.979Z,1.60
2024-02-13T10:56:22.669Z,1.70
2024-02-13T10:58:53.409Z,1.30
2024-02-13T11:01:24.729Z,1.57
2024-02-13T11:03:58.514Z,1.50
2024-02-13T11:06:28.295Z,1.50
2024-02-13T11:08:59.671Z,1.70
2024-02-13T11:11:30.692Z,1.50
2024-02-13T11:14:00.261Z,1.73
2024-02-13T11:16:29.591Z,1.47
2024-02-13T11:19:05.088Z,1.90
2024-02-13T11:21:42.606Z,1.87
2024-02-13T11:24:22.393Z,1.30
2024-02-13T11:26:51.794Z,1.67
2024-02-13T11:29:23.469Z,1.53
2024-02-13T11:31:59.978Z,2.93
2024-02-13T11:34:44.614Z,1.93
2024-02-13T11:37:21.203Z,1.90
2024-02-13T11:39:51.962Z,1.87
2024-02-13T11:42:21.404Z,1.50
2024-02-13T11:44:53.432Z,2.27
2024-02-13T11:47:26.197Z,1.87
2024-02-13T11:49:56.739Z,2.57
2024-02-13T11:52:26.515Z,2.07
2024-02-13T11:54:57.472Z,2.83
2024-02-13T11:57:27.442Z,1.93
2024-02-13T12:00:01.761Z,2.20
2024-02-13T12:02:31.715Z,2.27
2024-02-13T12:05:03.940Z,2.83
2024-02-13T12:07:33.229Z,1.83
2024-02-13T12:10:06.751Z,1.70
2024-02-13T12:12:36.513Z,1.70
2024-02-13T12:15:09.586Z,2.33
2024-02-13T12:17:39.706Z,2.00
2024-02-13T12:20:13.852Z,1.73
2024-02-13T12:22:46.028Z,2.00
2024-02-13T12:25:20.093Z,1.83
2024-02-13T12:27:50.564Z,1.90
2024-02-13T12:30:21.243Z,2.17
2024-02-13T12:32:50.633Z,1.90
2024-02-13T12:35:33.819Z,2.00
2024-02-13T12:38:15.270Z,3.73
2024-02-13T12:40:47.498Z,2.27
2024-02-13T12:43:17.524Z,1.90
2024-02-13T12:45:48.108Z,2.10
2024-02-13T12:48:17.470Z,2.50
2024-02-13T12:50:47.947Z,2.67
2024-02-13T12:53:19.631Z,2.90
2024-02-13T12:55:51.182Z,2.37
2024-02-13T12:58:22.975Z,1.87
2024-02-13T13:00:52.442Z,2.23
2024-02-13T13:03:21.876Z,1.80
2024-02-13T13:05:51.659Z,2.20
2024-02-13T13:08:24.323Z,1.43
2024-02-13T13:40:20.231Z,2.43
2024-02-13T13:43:08.138Z,1.60
2024-02-13T13:45:57.381Z,1.53
2024-02-13T13:48:45.676Z,2.83
2024-02-13T13:51:35.268Z,3.27
2024-02-13T13:54:23.664Z,1.87
2024-02-13T13:57:13.289Z,1.87
2024-02-13T14:00:01.236Z,1.50
2024-02-13T14:02:49.869Z,1.63
2024-02-13T14:05:39.242Z,1.60
2024-02-13T14:51:56.746Z,2.53
2024-02-13T14:54:28.080Z,2.00
2024-02-13T14:56:57.153Z,10.03
2024-02-13T14:59:26.866Z,2.87
2024-02-13T15:01:57.424Z,4.10
2024-02-13T15:04:26.606Z,1.50
2024-02-13T15:06:57.460Z,2.20
2024-02-13T15:09:29.473Z,1.77
2024-02-13T15:11:59.526Z,1.50
2024-02-13T15:14:29.018Z,1.70
2024-02-13T15:16:59.367Z,1.40
2024-02-13T15:19:30.310Z,3.57
2024-02-13T15:22:03.058Z,2.03
2024-02-13T15:24:32.317Z,1.30
2024-02-13T15:27:01.425Z,1.50
2024-02-13T15:29:30.627Z,1.27
2024-02-13T15:31:59.817Z,4.90
2024-02-13T15:34:29.184Z,1.40
2024-02-13T15:37:11.506Z,1.30
2024-02-13T15:39:58.098Z,1.07
2024-02-13T15:42:45.600Z,1.27
2024-02-13T15:45:31.847Z,1.33
2024-02-13T15:48:01.487Z,4.13
2024-02-13T15:50:30.840Z,2.90
2024-02-13T15:53:02.212Z,5.40
2024-02-13T15:55:31.785Z,2.27
2024-02-13T15:58:01.245Z,2.80
2024-02-13T16:00:32.233Z,2.00
2024-02-13T16:03:10.013Z,1.27
2024-02-13T16:05:39.630Z,1.60
2024-02-13T16:08:12.210Z,6.13
2024-02-13T16:10:41.386Z,3.60
2024-02-13T16:13:11.841Z,1.67
2024-02-13T16:15:41.385Z,1.33
2024-02-13T16:18:11.306Z,2.57
2024-02-13T16:20:40.732Z,3.23
2024-02-13T16:23:11.913Z,7.13
2024-02-13T16:25:40.930Z,2.57
2024-02-13T16:28:10.234Z,3.33
2024-02-13T16:30:39.401Z,5.67
2024-02-13T16:33:10.065Z,1.70
2024-02-13T16:35:39.658Z,8.67
2024-02-13T16:38:10.294Z,2.90
2024-02-13T16:40:39.680Z,2.00
2024-02-13T16:43:08.977Z,4.30
2024-02-13T16:45:38.565Z,4.23
2024-02-13T16:48:10.841Z,2.30
2024-02-13T16:50:40.244Z,2.80
2024-02-13T16:53:11.081Z,2.03
2024-02-13T16:55:40.142Z,3.87
2024-02-13T16:58:10.302Z,3.33
2024-02-13T17:00:40.350Z,3.30
2024-02-13T17:03:09.813Z,3.43
2024-02-13T17:05:40.393Z,2.47
2024-02-13T17:08:11.358Z,2.70
2024-02-13T17:10:40.481Z,3.00
2024-02-13T17:13:10.200Z,3.50
2024-02-13T17:15:39.363Z,2.93
2024-02-13T17:18:08.802Z,3.50
2024-02-13T17:20:38.397Z,5.40
2024-02-13T17:23:09.586Z,5.03
2024-02-13T17:25:41.611Z,3.40
2024-02-13T17:28:12.443Z,3.73
2024-02-13T17:30:41.496Z,2.67
2024-02-13T17:33:10.724Z,2.37
2024-02-13T17:35:40.129Z,2.10
2024-02-13T17:38:10.598Z,2.77
2024-02-13T17:40:42.240Z,4.90
2024-02-13T17:43:16.199Z,1.80
2024-02-13T17:45:45.358Z,3.00
2024-02-13T17:48:14.899Z,4.27
2024-02-13T17:50:44.039Z,6.13
2024-02-13T17:53:13.174Z,3.77
2024-02-13T17:55:44.452Z,4.13
2024-02-13T17:58:14.866Z,5.80
2024-02-13T18:00:47.575Z,3.17
2024-02-13T18:03:17.266Z,2.90
2024-02-13T18:05:47.561Z,8.17
2024-02-13T18:08:16.798Z,4.33
2024-02-13T18:10:47.480Z,5.80
2024-02-13T18:13:16.663Z,3.30
2024-02-13T18:15:47.565Z,4.30
2024-02-13T18:18:18.360Z,3.90
2024-02-13T18:20:47.722Z,2.97
2024-02-13T18:23:17.556Z,2.90
2024-02-13T18:25:48.197Z,3.50
2024-02-13T18:28:18.519Z,4.07
2024-02-13T18:30:47.927Z,3.10
2024-02-13T18:33:17.061Z,4.27
2024-02-13T18:35:47.085Z,4.43
2024-02-13T18:38:17.501Z,5.83
2024-02-13T18:40:48.222Z,4.70
2024-02-13T18:43:17.127Z,5.33
2024-02-13T18:45:46.850Z,2.73
2024-02-13T18:48:16.106Z,4.00
2024-02-13T18:50:47.160Z,4.63
2024-02-13T18:53:21.166Z,6.97
2024-02-13T18:55:52.012Z,4.83
2024-02-13T18:58:21.192Z,6.13
2024-02-13T19:00:52.337Z,4.90
2024-02-13T19:03:22.711Z,5.97
2024-02-13T19:05:53.085Z,5.63
2024-02-13T19:08:22.418Z,7.47
2024-02-13T19:10:57.702Z,5.60
2024-02-13T19:13:28.426Z,7.43
2024-02-13T19:15:57.770Z,6.17
2024-02-13T19:18:28.083Z,5.03
2024-02-13T19:20:57.968Z,4.20
2024-02-13T19:23:27.585Z,4.73
2024-02-13T19:25:58.408Z,6.43
2024-02-13T19:28:28.108Z,6.83
2024-02-13T19:30:57.351Z,5.40
2024-02-13T19:33:31.200Z,7.47
2024-02-13T19:36:00.645Z,9.00
2024-02-13T19:38:32.408Z,5.90
2024-02-13T19:41:03.574Z,8.13
2024-02-13T19:43:35.746Z,7.70
2024-02-13T19:46:05.242Z,7.93
2024-02-13T19:48:38.911Z,10.03
2024-02-13T19:51:09.027Z,9.43
2024-02-13T19:53:38.321Z,7.37
2024-02-13T19:56:13.531Z,7.33
2024-02-13T19:58:44.055Z,7.27
2024-02-13T20:01:16.230Z,8.77
2024-02-13T20:03:45.260Z,10.53
2024-02-13T20:06:15.374Z,5.17
2024-02-13T20:08:45.282Z,6.73
2024-02-13T20:11:18.222Z,8.27
2024-02-13T20:13:47.920Z,7.87
2024-02-13T20:16:17.150Z,8.70
2024-02-13T20:18:46.613Z,6.13
2024-02-13T20:21:15.765Z,8.93
2024-02-13T20:23:47.510Z,7.77
2024-02-13T20:26:19.094Z,7.80
2024-02-13T20:28:49.189Z,8.10
2024-02-13T20:31:18.540Z,6.60
2024-02-13T20:33:48.961Z,7.57
2024-02-13T20:36:18.360Z,8.43
2024-02-13T20:38:47.719Z,7.27
2024-02-13T20:41:19.359Z,6.97
2024-02-13T20:43:48.640Z,8.40
2024-02-13T20:46:20.144Z,7.50
2024-02-13T20:48:51.097Z,7.90
2024-02-13T20:51:20.227Z,10.93
2024-02-13T20:53:49.380Z,9.47
2024-02-13T20:56:19.998Z,7.67
2024-02-13T20:58:49.373Z,8.90
2024-02-13T21:01:18.541Z,8.63
2024-02-13T21:03:49.365Z,7.47
2024-02-13T21:06:21.193Z,6.37
2024-02-13T21:08:50.721Z,8.13
2024-02-13T21:11:21.541Z,5.40
2024-02-13T21:13:51.320Z,8.63
2024-02-13T21:16:20.556Z,5.13
2024-02-13T21:18:49.845Z,8.80
2024-02-13T21:21:37.119Z,7.67
2024-02-13T21:24:07.908Z,6.07
2024-02-13T21:26:42.460Z,6.30
2024-02-13T21:29:11.897Z,5.60
2024-02-13T21:31:44.741Z,5.50
2024-02-13T21:34:14.070Z,5.63
2024-02-13T21:36:44.955Z,7.53
2024-02-13T21:39:14.216Z,6.30
2024-02-13T21:41:45.089Z,5.83
2024-02-13T21:44:16.303Z,7.63
2024-02-13T21:46:45.351Z,6.80
2024-02-13T21:49:14.960Z,7.07
2024-02-13T21:51:44.628Z,5.97
2024-02-13T21:54:13.685Z,6.83
2024-02-13T21:56:44.467Z,7.47
2024-02-13T21:59:13.692Z,6.10
2024-02-13T22:01:42.923Z,5.83
2024-02-13T22:04:12.121Z,6.00
2024-02-13T22:06:41.492Z,4.77
2024-02-13T22:09:13.698Z,5.73
2024-02-13T22:11:44.658Z,5.90
2024-02-13T22:14:14.345Z,4.57
2024-02-13T22:16:44.484Z,4.27
2024-02-13T22:19:14.150Z,5.20
2024-02-13T22:21:43.687Z,6.80
2024-02-13T22:24:13.119Z,4.47
2024-02-13T22:26:43.827Z,5.63
2024-02-13T22:29:13.154Z,5.00
2024-02-13T22:31:42.361Z,5.17
2024-02-13T22:34:15.241Z,4.77
2024-02-13T22:36:52.924Z,5.90
2024-02-13T22:39:22.563Z,5.40
2024-02-13T22:41:53.686Z,5.43
2024-02-13T22:44:25.631Z,7.90
2024-02-13T22:46:55.103Z,7.80
2024-02-13T22:49:24.425Z,4.50
2024-02-13T22:51:53.782Z,6.67
2024-02-13T22:54:23.396Z,4.30
2024-02-13T22:56:55.056Z,6.10
2024-02-13T22:59:24.708Z,8.00
2024-02-13T23:01:55.160Z,7.10
2024-02-13T23:04:24.365Z,5.63
2024-02-13T23:06:53.791Z,7.77
2024-02-13T23:09:23.398Z,8.07
2024-02-13T23:11:54.882Z,8.30
2024-02-13T23:14:24.624Z,9.07
2024-02-13T23:16:54.383Z,9.47
2024-02-13T23:19:24.528Z,5.03
2024-02-13T23:21:54.167Z,7.00
2024-02-13T23:24:23.275Z,7.10
2024-02-13T23:26:53.762Z,8.23
2024-02-13T23:29:24.312Z,8.57
2024-02-13T23:31:53.359Z,6.27
2024-02-13T23:34:22.884Z,6.13
2024-02-13T23:36:52.143Z,7.53
2024-02-13T23:39:21.360Z,5.10
2024-02-13T23:41:50.778Z,7.00
2024-02-13T23:44:22.298Z,7.03
2024-02-13T23:46:51.479Z,6.70
2024-02-13T23:49:20.875Z,7.23
2024-02-13T23:51:50.118Z,9.10
2024-02-13T23:54:26.508Z,9.17
2024-02-13T23:56:55.622Z,7.17
2024-02-13T23:59:26.134Z,9.63
